createdAt,value
2018-04-29T00:01:01.695Z,5.33
2018-04-29T00:03:31.690Z,4.93
2018-04-29T00:06:00.929Z,5.40
2018-04-29T00:08:30.168Z,5.67
2018-04-29T00:10:59.483Z,5.20
2018-04-29T00:13:28.858Z,5.20
2018-04-29T00:15:58.087Z,5.63
2018-04-29T00:18:27.328Z,7.00
2018-04-29T00:20:56.620Z,7.87
2018-04-29T00:23:25.845Z,7.57
2018-04-29T00:25:55.124Z,7.60
2018-04-29T00:28:24.343Z,6.87
2018-04-29T00:30:53.624Z,7.37
2018-04-29T00:33:22.927Z,8.10
2018-04-29T00:35:52.224Z,7.50
2018-04-29T00:38:22.164Z,7.77
2018-04-29T00:40:51.423Z,6.87
2018-04-29T00:43:21.541Z,6.57
2018-04-29T00:45:50.933Z,6.90
2018-04-29T00:48:20.152Z,6.93
2018-04-29T00:50:49.376Z,5.97
2018-04-29T00:53:18.643Z,6.33
2018-04-29T00:55:49.543Z,6.60
2018-04-29T00:58:18.785Z,6.43
2018-04-29T01:00:47.998Z,6.07
2018-04-29T01:03:17.211Z,6.47
2018-04-29T01:05:46.515Z,6.23
2018-04-29T01:08:15.704Z,6.67
2018-04-29T01:10:44.933Z,7.10
2018-04-29T01:13:14.922Z,7.57
2018-04-29T01:15:44.145Z,7.27
2018-04-29T01:18:13.538Z,6.13
2018-04-29T01:20:42.749Z,6.53
2018-04-29T01:23:12.800Z,7.07
2018-04-29T01:25:41.963Z,7.40
2018-04-29T01:28:12.044Z,7.10
2018-04-29T01:30:41.253Z,6.80
2018-04-29T01:33:11.997Z,6.80
2018-04-29T01:35:41.217Z,6.90
2018-04-29T01:38:11.206Z,6.60
2018-04-29T01:40:40.442Z,5.93
2018-04-29T01:43:09.683Z,6.43
2018-04-29T01:45:38.891Z,6.77
2018-04-29T01:48:08.108Z,6.60
2018-04-29T01:50:37.305Z,6.50
2018-04-29T01:53:06.714Z,6.37
2018-04-29T01:55:35.933Z,6.40
2018-04-29T01:58:05.148Z,7.10
2018-04-29T02:00:34.404Z,5.87
2018-04-29T02:03:04.401Z,6.10
2018-04-29T02:05:33.594Z,6.40
2018-04-29T02:08:02.845Z,6.57
2018-04-29T02:10:32.112Z,6.40
2018-04-29T02:13:01.315Z,6.70
2018-04-29T02:15:31.532Z,6.43
2018-04-29T02:18:00.746Z,6.33
2018-04-29T02:20:30.719Z,6.73
2018-04-29T02:22:59.917Z,6.20
2018-04-29T02:25:29.146Z,6.60
2018-04-29T02:27:58.372Z,5.63
2018-04-29T02:30:27.605Z,6.47
2018-04-29T02:32:56.811Z,6.37
2018-04-29T02:35:26.030Z,5.60
2018-04-29T02:37:55.278Z,6.03
2018-04-29T02:40:24.477Z,6.90
2018-04-29T02:42:53.683Z,6.07
2018-04-29T02:45:22.880Z,6.37
2018-04-29T02:47:52.100Z,6.00
2018-04-29T02:50:21.382Z,6.10
2018-04-29T02:52:50.594Z,6.70
2018-04-29T02:55:19.800Z,6.83
2018-04-29T02:57:49.097Z,6.57
2018-04-29T03:00:18.315Z,6.10
2018-04-29T03:02:47.562Z,6.87
2018-04-29T03:05:16.989Z,6.00
2018-04-29T03:07:46.199Z,6.10
2018-04-29T03:10:16.236Z,5.93
2018-04-29T03:12:46.193Z,6.50
2018-04-29T03:15:15.427Z,6.20
2018-04-29T03:17:44.629Z,6.93
2018-04-29T03:20:13.844Z,7.03
2018-04-29T03:22:43.833Z,6.63
2018-04-29T03:25:13.804Z,7.20
2018-04-29T03:27:43.128Z,5.97
2018-04-29T03:30:12.354Z,6.80
2018-04-29T03:32:41.561Z,6.53
2018-04-29T03:35:11.557Z,6.77
2018-04-29T03:37:40.781Z,6.97
2018-04-29T03:40:10.748Z,7.03
2018-04-29T03:42:39.957Z,6.93
2018-04-29T03:45:09.164Z,7.10
2018-04-29T03:47:38.385Z,7.30
2018-04-29T03:50:08.360Z,6.93
2018-04-29T03:52:37.616Z,6.83
2018-04-29T03:55:07.596Z,7.60
2018-04-29T04:11:15.727Z,6.30
2018-04-29T04:13:44.972Z,7.17
2018-04-29T04:16:14.216Z,7.70
2018-04-29T04:18:43.417Z,7.30
2018-04-29T04:21:13.394Z,7.10
2018-04-29T04:23:42.805Z,7.07
2018-04-29T04:26:12.923Z,6.43
2018-04-29T04:28:42.173Z,6.90
2018-04-29T04:31:11.377Z,6.77
2018-04-29T04:33:40.688Z,6.87
2018-04-29T04:36:09.949Z,6.50
2018-04-29T04:38:39.933Z,6.57
2018-04-29T04:41:09.144Z,6.70
2018-04-29T04:43:39.132Z,6.60
2018-04-29T04:46:08.357Z,6.87
2018-04-29T04:48:38.342Z,6.87
2018-04-29T04:51:07.592Z,7.13
2018-04-29T04:53:37.557Z,6.70
2018-04-29T04:56:06.900Z,7.57
2018-04-29T04:58:36.108Z,6.70
2018-04-29T05:01:05.709Z,6.50
2018-04-29T05:03:35.987Z,6.77
2018-04-29T05:06:05.255Z,7.30
2018-04-29T05:08:34.452Z,8.23
2018-04-29T05:11:03.660Z,6.70
2018-04-29T05:13:32.880Z,6.70
2018-04-29T05:16:02.090Z,6.20
2018-04-29T05:18:31.286Z,6.70
2018-04-29T05:21:00.487Z,6.63
2018-04-29T05:23:29.710Z,6.40
2018-04-29T05:25:59.706Z,6.50
2018-04-29T05:28:28.929Z,6.60
2018-04-29T05:30:58.134Z,6.20
2018-04-29T05:33:27.364Z,6.90
2018-04-29T05:35:56.642Z,6.17
2018-04-29T05:38:26.580Z,6.90
2018-04-29T05:40:55.781Z,6.53
2018-04-29T05:43:25.016Z,6.20
2018-04-29T05:45:54.995Z,6.50
2018-04-29T05:48:24.256Z,5.60
2018-04-29T05:50:53.668Z,5.90
2018-04-29T05:53:22.889Z,5.23
2018-04-29T05:55:52.103Z,5.60
2018-04-29T05:58:21.584Z,5.47
2018-04-29T06:00:50.762Z,6.00
2018-04-29T06:03:19.991Z,6.30
2018-04-29T06:05:49.194Z,5.70
2018-04-29T06:08:18.442Z,4.93
2018-04-29T06:10:47.893Z,6.40
2018-04-29T06:13:17.140Z,5.97
2018-04-29T06:15:47.214Z,6.77
2018-04-29T06:18:16.432Z,5.73
2018-04-29T06:20:46.408Z,5.10
2018-04-29T06:23:15.720Z,5.60
2018-04-29T06:25:44.969Z,5.70
2018-04-29T06:28:14.181Z,4.93
2018-04-29T06:30:43.430Z,5.63
2018-04-29T06:33:12.701Z,5.60
2018-04-29T06:35:41.954Z,5.50
2018-04-29T06:38:11.942Z,5.23
2018-04-29T06:40:41.198Z,6.83
2018-04-29T06:43:11.131Z,8.30
2018-04-29T06:45:40.392Z,7.10
2018-04-29T06:48:10.368Z,7.83
2018-04-29T06:50:39.728Z,7.63
2018-04-29T06:53:08.966Z,6.97
2018-04-29T06:55:38.227Z,6.80
2018-04-29T06:58:07.615Z,6.70
2018-04-29T07:00:36.841Z,6.83
2018-04-29T07:03:06.050Z,6.40
2018-04-29T07:05:35.462Z,6.87
2018-04-29T07:08:05.568Z,8.20
2018-04-29T07:10:34.754Z,7.57
2018-04-29T07:13:03.957Z,7.70
2018-04-29T07:15:33.171Z,7.17
2018-04-29T07:18:02.400Z,7.30
2018-04-29T07:20:32.460Z,7.20
2018-04-29T07:23:01.675Z,7.87
2018-04-29T07:25:31.271Z,6.00
2018-04-29T07:28:00.494Z,5.50
2018-04-29T07:30:30.465Z,6.13
2018-04-29T07:32:59.861Z,6.37
2018-04-29T07:35:29.097Z,5.70
2018-04-29T07:37:58.333Z,5.90
2018-04-29T07:40:28.355Z,5.87
2018-04-29T07:42:58.440Z,5.20
2018-04-29T07:45:29.411Z,5.30
2018-04-29T07:47:59.401Z,5.20
2018-04-29T07:50:29.365Z,5.50
2018-04-29T07:52:58.664Z,5.27
2018-04-29T07:55:27.898Z,5.40
2018-04-29T07:57:57.133Z,6.17
2018-04-29T08:00:27.162Z,5.60
2018-04-29T08:02:56.457Z,6.90
2018-04-29T08:05:26.467Z,6.57
2018-04-29T08:07:55.717Z,5.97
2018-04-29T08:10:24.933Z,5.83
2018-04-29T08:12:54.169Z,6.63
2018-04-29T08:15:23.431Z,6.60
2018-04-29T08:17:52.604Z,6.70
2018-04-29T08:20:21.849Z,7.00
2018-04-29T08:22:51.041Z,7.50
2018-04-29T08:25:20.382Z,6.83
2018-04-29T08:27:49.591Z,6.60
2018-04-29T08:30:18.794Z,6.80
2018-04-29T08:32:48.067Z,6.33
2018-04-29T08:35:17.361Z,7.20
2018-04-29T08:37:47.436Z,7.47
2018-04-29T08:40:16.653Z,6.07
2018-04-29T08:42:47.279Z,6.57
2018-04-29T08:45:16.574Z,6.30
2018-04-29T08:47:45.773Z,6.73
2018-04-29T08:50:16.422Z,5.90
2018-04-29T08:52:46.229Z,6.90
2018-04-29T08:55:16.410Z,6.33
2018-04-29T08:57:47.106Z,8.10
2018-04-29T09:00:20.871Z,6.30
2018-04-29T09:02:52.772Z,7.10
2018-04-29T09:05:23.842Z,6.90
2018-04-29T09:07:53.633Z,7.83
2018-04-29T09:10:22.920Z,7.50
2018-04-29T09:12:52.125Z,6.73
2018-04-29T09:15:21.340Z,7.20
2018-04-29T09:17:50.584Z,6.80
2018-04-29T09:20:19.778Z,6.90
2018-04-29T09:22:49.757Z,6.03
2018-04-29T09:25:19.106Z,5.97
2018-04-29T09:27:48.350Z,6.27
2018-04-29T09:30:18.383Z,5.57
2018-04-29T09:32:47.615Z,6.20
2018-04-29T09:35:17.629Z,5.77
2018-04-29T09:37:47.654Z,6.03
2018-04-29T09:40:17.652Z,5.90
2018-04-29T09:42:46.883Z,4.60
2018-04-29T09:45:18.058Z,4.70
2018-04-29T09:47:47.792Z,4.90
2018-04-29T09:50:17.052Z,4.93
2018-04-29T09:52:46.281Z,5.63
2018-04-29T09:55:15.574Z,4.93
2018-04-29T09:57:45.693Z,4.60
2018-04-29T10:00:14.940Z,4.83
2018-04-29T10:02:48.024Z,5.30
2018-04-29T10:05:17.249Z,5.50
2018-04-29T10:07:46.456Z,5.10
2018-04-29T10:10:15.709Z,4.87
2018-04-29T10:12:45.734Z,5.90
2018-04-29T10:15:14.953Z,6.67
2018-04-29T10:17:44.167Z,6.90
2018-04-29T10:20:13.441Z,6.80
2018-04-29T10:22:42.641Z,6.80
2018-04-29T10:25:11.927Z,7.50
2018-04-29T10:27:41.153Z,7.40
2018-04-29T10:30:10.401Z,6.43
2018-04-29T10:32:39.617Z,7.70
2018-04-29T10:35:08.842Z,7.27
2018-04-29T10:37:38.052Z,7.80
2018-04-29T10:40:07.288Z,7.57
2018-04-29T10:42:36.517Z,7.70
2018-04-29T10:45:05.729Z,7.80
2018-04-29T10:47:34.953Z,7.63
2018-04-29T10:50:04.171Z,7.73
2018-04-29T10:52:34.233Z,7.80
2018-04-29T10:55:03.447Z,7.60
2018-04-29T10:57:32.676Z,7.07
2018-04-29T11:00:01.922Z,7.50
2018-04-29T11:02:31.149Z,7.70
2018-04-29T11:05:00.381Z,8.00
2018-04-29T11:07:30.502Z,6.93
2018-04-29T11:09:59.758Z,7.37
2018-04-29T11:12:29.024Z,7.33
2018-04-29T11:14:59.208Z,6.83
2018-04-29T11:17:28.457Z,7.40
2018-04-29T11:19:57.665Z,6.80
2018-04-29T11:22:26.996Z,6.70
2018-04-29T11:24:56.105Z,7.40
2018-04-29T11:27:25.361Z,6.27
2018-04-29T11:29:54.559Z,6.93
2018-04-29T11:32:23.874Z,6.10
2018-04-29T11:34:53.965Z,6.30
2018-04-29T11:37:24.093Z,5.47
2018-04-29T11:39:53.367Z,5.50
2018-04-29T11:42:23.355Z,5.37
2018-04-29T11:44:52.610Z,5.47
2018-04-29T11:47:21.851Z,4.80
2018-04-29T11:49:51.869Z,5.93
2018-04-29T11:52:21.862Z,5.80
2018-04-29T11:54:51.234Z,6.03
2018-04-29T11:57:20.545Z,5.33
2018-04-29T11:59:49.768Z,5.80
2018-04-29T12:02:19.059Z,5.10
2018-04-29T12:04:48.329Z,5.50
2018-04-29T12:07:17.702Z,5.80
2018-04-29T12:09:47.727Z,6.43
2018-04-29T12:12:18.555Z,6.27
2018-04-29T12:14:48.564Z,5.67
2018-04-29T12:17:18.540Z,4.73
2018-04-29T12:19:47.782Z,5.30
2018-04-29T12:22:17.001Z,4.40
2018-04-29T12:24:46.314Z,5.00
2018-04-29T12:27:15.541Z,4.37
2018-04-29T12:29:44.750Z,4.03
2018-04-29T12:32:14.009Z,4.23
2018-04-29T12:34:43.291Z,5.07
2018-04-29T12:37:13.691Z,6.10
2018-04-29T12:39:43.673Z,5.17
2018-04-29T12:42:12.869Z,4.97
2018-04-29T12:44:42.072Z,5.50
2018-04-29T12:47:11.245Z,5.60
2018-04-29T12:49:40.454Z,6.00
2018-04-29T12:52:09.713Z,5.87
2018-04-29T12:54:38.908Z,5.93
2018-04-29T12:57:08.878Z,5.10
2018-04-29T12:59:38.098Z,6.10
2018-04-29T13:02:07.352Z,5.70
2018-04-29T13:04:36.593Z,4.87
2018-04-29T13:07:05.849Z,5.43
2018-04-29T13:09:35.037Z,4.60
2018-04-29T13:12:04.264Z,4.73
2018-04-29T13:14:33.461Z,4.93
2018-04-29T13:17:02.704Z,5.43
2018-04-29T13:19:31.879Z,4.73
2018-04-29T13:22:01.105Z,5.90
2018-04-29T13:24:31.079Z,4.37
2018-04-29T13:27:00.322Z,2.70
2018-04-29T13:29:29.712Z,1.90
2018-04-29T13:31:59.684Z,2.40
2018-04-29T13:34:28.917Z,1.80
2018-04-29T13:36:58.160Z,1.97
2018-04-29T13:39:27.394Z,2.20
2018-04-29T13:41:56.642Z,2.67
2018-04-29T13:44:25.844Z,2.47
2018-04-29T13:46:55.024Z,2.77
2018-04-29T13:49:24.401Z,2.40
2018-04-29T13:51:53.902Z,2.43
2018-04-29T13:54:23.960Z,2.53
2018-04-29T13:56:53.161Z,2.70
2018-04-29T13:59:22.410Z,2.67
2018-04-29T14:01:53.232Z,2.90
2018-04-29T14:04:23.169Z,3.50
2018-04-29T14:06:53.841Z,2.50
2018-04-29T14:09:23.104Z,2.60
2018-04-29T14:11:53.079Z,2.53
2018-04-29T14:14:22.402Z,2.90
2018-04-29T14:16:51.612Z,2.57
2018-04-29T14:19:21.593Z,2.70
2018-04-29T14:21:50.941Z,3.13
2018-04-29T14:24:20.168Z,3.03
2018-04-29T14:26:49.429Z,2.77
2018-04-29T14:29:19.448Z,2.80
2018-04-29T14:31:48.709Z,3.10
2018-04-29T14:34:18.228Z,3.70
2018-04-29T14:36:47.494Z,3.53
2018-04-29T14:39:16.709Z,3.33
2018-04-29T14:41:46.157Z,3.07
2018-04-29T14:44:15.399Z,2.80
2018-04-29T14:46:44.651Z,2.90
2018-04-29T14:49:14.608Z,3.13
2018-04-29T14:51:43.854Z,3.40
2018-04-29T14:54:13.953Z,2.93
2018-04-29T14:56:43.209Z,3.30
2018-04-29T14:59:12.461Z,2.80
2018-04-29T15:01:41.722Z,2.30
2018-04-29T15:04:10.946Z,3.10
2018-04-29T15:06:40.174Z,2.93
2018-04-29T15:09:10.321Z,3.00
2018-04-29T15:11:39.546Z,3.20
2018-04-29T15:14:08.795Z,3.23
2018-04-29T15:16:37.988Z,3.40
2018-04-29T15:19:07.219Z,3.20
2018-04-29T15:21:36.430Z,3.23
2018-04-29T15:24:07.335Z,3.23
2018-04-29T15:26:36.573Z,3.30
2018-04-29T15:29:05.890Z,3.00
2018-04-29T15:31:35.133Z,3.20
2018-04-29T15:34:04.358Z,3.40
2018-04-29T15:36:33.653Z,3.90
2018-04-29T15:39:02.902Z,3.60
2018-04-29T15:41:32.905Z,3.47
2018-04-29T15:44:02.131Z,3.57
2018-04-29T15:46:31.382Z,3.90
2018-04-29T15:49:00.598Z,4.17
2018-04-29T15:51:29.935Z,4.00
2018-04-29T15:54:00.110Z,3.53
2018-04-29T15:56:29.380Z,3.83
2018-04-29T15:58:58.601Z,3.83
2018-04-29T16:01:27.842Z,3.53
2018-04-29T16:03:57.874Z,3.10
2018-04-29T16:06:27.102Z,4.10
2018-04-29T16:08:56.321Z,3.40
2018-04-29T16:11:27.058Z,4.37
2018-04-29T16:13:56.289Z,3.53
2018-04-29T16:16:25.550Z,4.23
2018-04-29T16:18:54.800Z,3.60
2018-04-29T16:21:24.088Z,3.30
2018-04-29T16:23:54.183Z,4.00
2018-04-29T16:26:23.420Z,3.47
2018-04-29T16:28:52.645Z,2.90
2018-04-29T16:31:21.861Z,3.87
2018-04-29T16:33:51.094Z,4.50
2018-04-29T16:36:21.050Z,4.80
2018-04-29T16:38:50.297Z,7.60
2018-04-29T16:41:19.545Z,5.20
2018-04-29T16:43:48.808Z,4.40
2018-04-29T16:46:18.014Z,3.97
2018-04-29T16:48:47.240Z,4.20
2018-04-29T16:51:16.462Z,4.20
2018-04-29T16:53:46.467Z,4.33
2018-04-29T16:56:16.473Z,3.90
2018-04-29T16:58:46.535Z,4.63
2018-04-29T17:01:15.832Z,4.30
2018-04-29T17:03:45.050Z,4.20
2018-04-29T17:06:14.352Z,3.60
2018-04-29T17:08:43.603Z,4.40
2018-04-29T17:11:12.807Z,4.33
2018-04-29T17:13:42.025Z,4.53
2018-04-29T17:16:12.053Z,3.70
2018-04-29T17:18:42.017Z,4.33
2018-04-29T17:21:11.219Z,4.20
2018-04-29T17:23:42.006Z,4.33
2018-04-29T17:26:11.246Z,4.60
2018-04-29T17:28:40.491Z,4.30
2018-04-29T17:31:09.733Z,4.33
2018-04-29T17:33:38.968Z,4.40
2018-04-29T17:36:08.967Z,4.37
2018-04-29T17:38:38.188Z,4.20
2018-04-29T17:41:07.593Z,4.43
2018-04-29T17:43:37.583Z,4.53
2018-04-29T17:46:06.835Z,5.30
2018-04-29T17:48:36.069Z,4.90
2018-04-29T17:51:05.332Z,5.20
2018-04-29T17:53:34.555Z,5.17
2018-04-29T17:56:04.110Z,4.57
2018-04-29T17:58:33.979Z,5.40
2018-04-29T18:01:03.221Z,4.70
2018-04-29T18:03:33.213Z,5.07
2018-04-29T18:06:02.465Z,5.17
2018-04-29T18:08:31.683Z,5.03
2018-04-29T18:11:00.946Z,5.50
2018-04-29T18:13:30.198Z,5.03
2018-04-29T18:15:59.512Z,5.80
2018-04-29T18:18:28.739Z,4.80
2018-04-29T18:20:58.136Z,5.40
2018-04-29T18:23:27.362Z,5.33
2018-04-29T18:25:56.635Z,5.53
2018-04-29T18:28:26.290Z,4.87
2018-04-29T18:30:55.749Z,5.57
2018-04-29T18:33:24.977Z,6.77
2018-04-29T18:35:54.232Z,6.80
2018-04-29T18:38:24.237Z,6.43
2018-04-29T18:40:54.238Z,6.13
2018-04-29T18:43:24.986Z,6.80
2018-04-29T18:45:54.249Z,5.40
2018-04-29T18:48:23.466Z,5.43
2018-04-29T18:50:52.843Z,5.50
2018-04-29T18:53:22.715Z,6.40
2018-04-29T18:55:52.348Z,6.77
2018-04-29T18:58:21.609Z,5.20
2018-04-29T19:00:50.908Z,5.60
2018-04-29T19:03:21.312Z,5.57
2018-04-29T19:06:06.146Z,5.20
2018-04-29T19:08:35.686Z,5.07
2018-04-29T19:11:05.771Z,5.60
2018-04-29T19:13:35.143Z,5.67
2018-04-29T19:16:04.471Z,5.20
2018-04-29T19:18:33.714Z,5.63
2018-04-29T19:21:03.679Z,5.17
2018-04-29T19:23:33.040Z,6.10
2018-04-29T19:26:02.380Z,5.70
2018-04-29T19:28:31.946Z,6.37
2018-04-29T19:31:01.255Z,5.40
2018-04-29T19:33:31.323Z,5.10
2018-04-29T19:36:00.664Z,6.30
2018-04-29T19:38:30.793Z,5.23
2018-04-29T19:41:00.012Z,4.93
2018-04-29T19:43:29.185Z,6.97
2018-04-29T19:45:59.220Z,5.30
2018-04-29T19:48:28.500Z,5.67
2018-04-29T19:50:58.462Z,6.53
2018-04-29T19:53:27.709Z,6.40
2018-04-29T19:55:57.697Z,6.90
2018-04-29T19:58:26.904Z,5.90
2018-04-29T20:00:56.936Z,6.83
2018-04-29T20:03:27.576Z,6.13
2018-04-29T20:05:57.564Z,7.13
2018-04-29T20:08:26.782Z,7.20
2018-04-29T20:10:56.788Z,6.90
2018-04-29T20:13:27.497Z,7.43
2018-04-29T20:15:56.732Z,7.27
2018-04-29T20:18:26.746Z,7.10
2018-04-29T20:20:55.967Z,7.30
2018-04-29T20:23:25.551Z,7.37
2018-04-29T20:25:55.691Z,8.23
2018-04-29T20:28:24.930Z,8.70
2018-04-29T20:30:55.658Z,7.37
2018-04-29T20:33:25.689Z,6.93
2018-04-29T20:35:54.951Z,7.40
2018-04-29T20:38:24.172Z,6.33
2018-04-29T20:40:53.412Z,6.27
2018-04-29T20:43:23.425Z,6.60
2018-04-29T20:45:52.638Z,7.57
2018-04-29T20:48:21.866Z,7.70
2018-04-29T20:50:51.109Z,6.50
2018-04-29T20:53:21.102Z,7.50
2018-04-29T20:55:50.320Z,7.67
2018-04-29T20:58:20.315Z,8.70
2018-04-29T21:00:49.516Z,7.17
2018-04-29T21:03:18.771Z,7.37
2018-04-29T21:05:48.015Z,7.30
2018-04-29T21:08:17.311Z,7.57
2018-04-29T21:10:46.526Z,8.13
2018-04-29T21:13:16.638Z,7.90
2018-04-29T21:15:45.896Z,8.00
2018-04-29T21:18:15.127Z,8.27
2018-04-29T21:20:44.383Z,8.97
2018-04-29T21:23:13.678Z,8.20
2018-04-29T21:25:42.886Z,8.23
2018-04-29T21:28:12.944Z,9.00
2018-04-29T21:30:42.125Z,8.63
2018-04-29T21:33:11.362Z,9.00
2018-04-29T21:35:41.441Z,8.63
2018-04-29T21:38:10.748Z,9.50
2018-04-29T21:40:40.014Z,10.20
2018-04-29T21:43:09.265Z,9.10
2018-04-29T21:45:39.229Z,9.60
2018-04-29T21:48:08.563Z,10.20
2018-04-29T21:50:37.772Z,9.93
2018-04-29T21:53:07.010Z,11.07
2018-04-29T21:55:36.233Z,10.33
2018-04-29T21:58:05.451Z,10.97
2018-04-29T22:00:34.710Z,10.70
2018-04-29T22:03:03.905Z,11.60
2018-04-29T22:05:33.154Z,10.60
2018-04-29T22:08:02.525Z,10.17
2018-04-29T22:10:31.757Z,11.30
2018-04-29T22:13:04.768Z,10.20
2018-04-29T22:15:33.994Z,10.30
2018-04-29T22:18:03.233Z,10.40
2018-04-29T22:20:32.474Z,11.30
2018-04-29T22:23:01.710Z,10.47
2018-04-29T22:25:30.953Z,11.23
2018-04-29T22:28:00.176Z,10.83
2018-04-29T22:30:29.395Z,11.60
2018-04-29T22:32:58.650Z,11.37
2018-04-29T22:35:28.801Z,10.80
2018-04-29T22:37:58.041Z,10.70
2018-04-29T22:40:27.268Z,12.17
2018-04-29T22:42:57.259Z,10.90
2018-04-29T22:45:27.266Z,10.90
2018-04-29T22:47:56.674Z,11.30
2018-04-29T22:50:25.878Z,10.80
2018-04-29T22:52:55.103Z,11.17
2018-04-29T22:55:24.311Z,11.80
2018-04-29T22:57:53.574Z,11.53
2018-04-29T23:00:22.776Z,11.87
2018-04-29T23:02:52.003Z,11.10
2018-04-29T23:05:21.217Z,11.17
2018-04-29T23:07:50.500Z,10.70
2018-04-29T23:10:20.469Z,11.03
2018-04-29T23:12:49.718Z,11.50
2018-04-29T23:15:18.971Z,10.43
2018-04-29T23:17:48.292Z,10.37
2018-04-29T23:20:17.510Z,10.37
2018-04-29T23:22:46.909Z,11.20
2018-04-29T23:25:16.162Z,10.50
2018-04-29T23:27:45.421Z,10.37
2018-04-29T23:30:14.648Z,10.40
2018-04-29T23:32:43.862Z,9.40
2018-04-29T23:35:13.114Z,10.60
2018-04-29T23:37:42.333Z,10.10
2018-04-29T23:40:11.579Z,9.90
2018-04-29T23:42:41.557Z,10.43
2018-04-29T23:45:10.817Z,9.57
2018-04-29T23:47:40.107Z,10.43
2018-04-29T23:50:09.273Z,9.77
2018-04-29T23:52:38.476Z,10.13
2018-04-29T23:55:08.516Z,10.40
2018-04-29T23:57:38.017Z,10.70
